Latest Weather Observations for Norfolk Island

IDN60801

Issued at 7:32 pm EST Wednesday 12 August 2020 (issued every 10 minutes, with the page automatically refreshed every 10 minutes)

About weather observations | Map of weather stations | Latest weather observations for NSW | Other Formats
Station Details ID: 200288 Name: NORFOLK ISLAND AERO Lat: -29.04 Lon: 167.94 Height: 111.73 m
Data from the previous 72 hours. | See also: Recent months at Norfolk Island

Observations are collected in the New South Wales time zone (Eastern Standard Time) which includes daylight savings in the summer period. Therefore 'Rain since 9am' totals and other values are based on the New South Wales time zone, which may differ from local time.

Date/Time
EST
Temp
°C
App
Temp
°C
Dew
Point
°C
Rel
Hum
%
Delta-T
°C
Wind Press
QNH
hPa
Press
MSL
hPa
Rain since
9am
mm
Dir  Spd
km/h
Gust
km/h
Spd
kts
Gust
kts
12/07:30pm 14.7 12.7 10.1 74 2.4 SE 11 13 6 7 1018.1 1017.9 0.0
12/07:00pm 15.1 13.2 10.5 74 2.4 SE 11 19 6 10 1017.9 1017.7 0.0
12/06:30pm 15.1 13.1 10.1 72 2.6 SE 11 15 6 8 1017.8 1017.6 0.0
12/06:00pm 14.8 14.9 11.4 80 1.8 SSW 2 7 1 4 1017.8 1017.6 0.0
12/05:30pm 14.8 13.9 10.8 77 2.1 SSW 6 11 3 6 1017.4 1017.2 0.0
12/05:00pm 14.8 13.6 10.2 74 2.4 SSE 7 11 4 6 1016.9 1016.7 0.0
12/04:30pm 15.0 13.3 10.0 72 2.6 SSE 9 13 5 7 1016.9 1016.7 0.0
12/04:00pm 16.0 13.6 10.1 68 3.1 SSE 13 17 7 9 1016.7 1016.5 0.0
12/03:30pm 16.5 14.1 9.9 65 3.5 SSE 13 17 7 9 1016.4 1016.2 0.0
12/03:00pm 17.0 14.4 10.6 66 3.4 SSE 15 19 8 10 1015.8 1015.6 0.0
12/02:30pm 17.2 14.6 10.8 66 3.4 SSE 15 20 8 11 1015.7 1015.5 0.0
12/02:00pm 17.2 14.1 10.3 64 3.7 SSE 17 26 9 14 1015.5 1015.3 0.0
12/01:30pm 17.2 14.2 10.8 66 3.4 SSE 17 22 9 12 1015.7 1015.5 0.0
12/01:00pm 17.1 14.3 11.4 69 3.1 SSE 17 22 9 12 1016.0 1015.8 0.0
12/12:30pm 17.9 15.3 12.1 69 3.2 S 17 26 9 14 1016.1 1015.9 0.0
12/12:00pm 17.4 14.5 12.3 72 2.8 SSE 19 26 10 14 1016.4 1016.2 0.0
12/11:30am 17.7 15.2 12.2 70 3.1 SSE 17 26 9 14 1016.5 1016.3 0.0
12/11:00am 17.7 15.2 12.2 70 3.0 S 17 24 9 13 1016.9 1016.7 0.0
12/10:30am 17.9 15.1 12.6 71 3.0 S 19 28 10 15 1016.9 1016.7 0.0
12/10:00am 18.1 15.9 13.2 73 2.8 S 17 28 9 15 1017.0 1016.8 0.0
12/09:30am 18.0 15.3 12.9 72 2.9 S 19 28 10 15 1017.3 1017.1 0.0
12/09:00am 17.6 14.8 11.2 66 3.5 SW 17 26 9 14 1017.2 1017.0 0.0
12/08:30am 17.8 15.7 12.3 70 3.1 SW 15 22 8 12 1017.4 1017.2 0.0
12/08:00am 16.7 13.7 12.5 76 2.3 SSW 20 28 11 15 1017.1 1016.9 1.4
12/07:30am 17.2 14.6 12.1 72 2.8 SW 17 22 9 12 1016.7 1016.5 1.4
12/07:00am 17.0 14.9 12.5 75 2.5 SW 15 20 8 11 1016.4 1016.2 1.4
12/06:30am 16.7 14.5 12.0 74 2.6 SW 15 20 8 11 1016.1 1015.9 1.4
12/06:00am 16.0 13.7 11.6 75 2.4 SW 15 22 8 12 1015.6 1015.4 1.4
12/05:30am 15.7 13.8 11.7 77 2.2 SW 13 19 7 10 1015.1 1014.9 1.4
12/05:00am 15.6 12.9 11.8 78 2.1 SW 17 28 9 15 1014.6 1014.4 1.4
12/04:30am 15.7 12.9 11.3 75 2.4 WSW 17 24 9 13 1014.4 1014.2 1.4
12/04:00am 15.6 12.4 11.4 76 2.3 WSW 19 26 10 14 1014.0 1013.8 1.4
12/03:30am 15.8 13.0 11.4 75 2.4 SW 17 28 9 15 1013.5 1013.4 1.4
12/03:00am 15.8 12.6 11.8 77 2.2 SW 20 28 11 15 1013.4 1013.3 1.4
12/02:30am 15.7 12.6 11.5 76 2.3 WSW 19 28 10 15 1013.1 1013.0 1.4
12/02:00am 15.6 12.4 11.2 75 2.4 SW 19 28 10 15 1012.7 1012.6 1.4
12/01:30am 15.6 11.8 11.0 74 2.5 SW 22 32 12 17 1012.6 1012.5 1.4
12/01:00am 15.9 11.8 11.5 75 2.4 SW 24 32 13 17 1012.4 1012.3 1.4
12/12:30am 15.8 12.5 11.6 76 2.3 WSW 20 30 11 16 1012.4 1012.3 1.4
12/12:00am 15.8 12.1 11.6 76 2.3 WSW 22 32 12 17 1012.4 1012.3 1.4
 
Date/Time
EST
Temp
°C
App
Temp
°C
Dew
Point
°C
Rel
Hum
%
Delta-T
°C
Wind Press
QNH
hPa
Press
MSL
hPa
Rain since
9am
mm
Dir  Spd
km/h
Gust
km/h
Spd
kts
Gust
kts
11/11:30pm 15.9 12.8 12.1 78 2.1 SW 20 28 11 15 1012.5 1012.4 1.4
11/11:00pm 15.9 12.2 11.5 75 2.4 WSW 22 33 12 18 1012.3 1012.2 1.4
11/10:30pm 16.0 11.7 12.2 78 2.1 SW 26 35 14 19 1012.0 1011.9 1.4
11/10:00pm 16.2 13.2 12.6 79 2.0 WSW 20 32 11 17 1011.8 1011.7 1.4
11/09:30pm 16.1 13.2 13.0 82 1.7 WSW 20 28 11 15 1011.5 1011.4 1.4
11/09:00pm 15.7 13.6 13.5 87 1.2 WSW 17 28 9 15 1011.4 1011.3 1.4
11/08:30pm 15.4 14.1 13.8 90 0.9 W 13 17 7 9 1011.1 1011.0 1.4
11/08:00pm 14.4 12.9 13.0 91 0.8 WNW 13 15 7 8 1010.8 1010.6 1.4
11/07:30pm 14.4 13.2 12.8 90 0.9 WNW 11 17 6 9 1010.8 1010.6 1.4
11/07:10pm 14.2 13.2 12.2 88 1.1 WNW 9 11 5 6 1010.6 1010.4 1.4
11/07:00pm 14.1 11.5 12.0 87 1.1 W 17 30 9 16 1010.3 1010.1 1.4
11/06:52pm 14.5 10.6 12.0 85 1.4 W 24 39 13 21 1010.5 1010.3 1.0
11/06:30pm 16.4 14.3 13.5 83 1.6 WNW 17 26 9 14 1010.0 1009.8 0.0
11/06:00pm 16.6 13.8 13.3 81 1.9 WNW 20 32 11 17 1009.5 1009.3 0.0
11/05:30pm 16.8 13.9 12.9 78 2.2 WNW 20 35 11 19 1009.2 1009.0 0.0
11/05:00pm 16.5 14.1 12.7 78 2.1 NW 17 26 9 14 1008.5 1008.3 0.0
11/04:30pm 16.8 14.0 13.3 80 2.0 WNW 20 32 11 17 1008.5 1008.3 0.0
11/04:00pm 17.2 13.4 12.5 74 2.6 WNW 24 39 13 21 1008.1 1007.9 0.0
11/03:35pm 17.4 12.8 12.3 72 2.8 WNW 28 48 15 26 1008.2 1008.0 0.0
11/03:30pm 17.4 13.4 11.9 70 3.0 WNW 24 48 13 26 1008.2 1008.0 0.0
11/03:18pm 17.5 12.3 11.5 68 3.3 WNW 30 48 16 26 1008.2 1008.0 0.0
11/03:00pm 17.5 14.1 12.6 73 2.7 WNW 22 32 12 17 1007.9 1007.7 0.0
11/02:30pm 17.8 14.3 13.5 76 2.4 WNW 24 33 13 18 1007.9 1007.7 0.0
11/02:00pm 17.5 12.6 12.6 73 2.7 WNW 30 39 16 21 1007.7 1007.5 0.0
11/01:30pm 17.7 13.1 12.2 70 3.1 WNW 28 39 15 21 1007.7 1007.5 0.0
11/01:00pm 18.4 13.5 12.4 68 3.4 WNW 30 41 16 22 1007.8 1007.6 0.0
11/12:30pm 19.0 15.1 13.2 69 3.3 WNW 26 37 14 20 1007.8 1007.6 0.0
11/12:00pm 18.2 13.8 12.9 71 3.0 WNW 28 39 15 21 1008.0 1007.8 0.0
11/11:30am 18.5 14.5 13.1 71 3.1 WNW 26 35 14 19 1008.4 1008.2 0.0
11/11:00am 18.8 15.2 13.2 70 3.2 NW 24 35 13 19 1008.8 1008.6 0.0
11/10:30am 18.6 15.9 13.5 72 2.9 NW 20 37 11 20 1009.3 1009.1 0.0
11/10:00am 18.5 14.9 13.1 71 3.1 WNW 24 33 13 18 1009.4 1009.2 0.0
11/09:30am 17.9 14.9 12.4 70 3.1 NW 20 32 11 17 1009.8 1009.6 0.0
11/09:00am 18.0 15.0 12.5 70 3.1 NW 20 33 11 18 1010.1 1009.9 0.0
11/08:30am 17.5 15.0 12.2 71 2.9 WNW 17 26 9 14 1010.0 1009.8 0.0
11/08:00am 17.2 15.1 12.3 73 2.7 WNW 15 20 8 11 1010.0 1009.8 17.0
11/07:30am 16.6 14.7 12.9 79 2.1 W 15 19 8 10 1010.1 1009.9 17.0
11/07:00am 15.8 14.0 13.3 85 1.4 W 15 26 8 14 1010.2 1010.0 17.0
11/06:39am 14.7 12.4 12.9 89 1.0 W 17 26 9 14 1010.1 1009.9 17.0
11/06:30am 14.3 10.5 12.5 89 1.0 W 24 33 13 18 1010.2 1010.0 17.0
11/06:17am 14.7 9.2 12.6 87 1.2 W 33 52 18 28 1010.1 1009.9 16.4
11/06:12am 14.9 9.9 12.2 84 1.5 W 30 52 16 28 1009.9 1009.7 16.2
11/06:09am 15.4 11.4 11.8 79 2.0 WNW 24 52 13 28 1009.8 1009.6 15.8
11/06:00am 17.4 14.9 12.3 72 2.8 WNW 17 24 9 13 1009.6 1009.4 15.6
11/05:30am 17.0 14.3 11.7 71 2.9 WNW 17 24 9 13 1009.1 1008.9 15.6
11/05:00am 17.1 14.0 12.2 73 2.7 WNW 20 28 11 15 1009.0 1008.8 15.6
11/04:30am 17.0 13.2 11.3 69 3.1 W 22 32 12 17 1008.6 1008.4 15.6
11/04:00am 16.9 12.7 11.2 69 3.1 W 24 33 13 18 1008.2 1008.0 15.6
11/03:30am 16.6 12.8 11.3 71 2.9 WNW 22 33 12 18 1008.3 1008.1 15.6
11/03:00am 16.9 12.9 11.8 72 2.8 WNW 24 33 13 18 1008.5 1008.3 15.6
11/02:30am 16.9 13.7 13.0 78 2.2 WNW 22 33 12 18 1008.5 1008.3 15.6
11/02:00am 16.7 14.8 14.3 86 1.4 NW 17 30 9 16 1008.6 1008.4 15.6
11/01:30am 16.3 14.4 14.1 87 1.3 NW 17 26 9 14 1008.8 1008.6 15.6
11/01:00am 16.4 14.9 14.1 86 1.3 NW 15 24 8 13 1008.8 1008.6 15.6
11/12:30am 16.1 13.3 13.2 83 1.6 WNW 20 32 11 17 1008.8 1008.6 15.6
11/12:00am 15.9 13.7 13.2 84 1.5 WNW 17 26 9 14 1008.8 1008.6 15.6
 
Date/Time
EST
Temp
°C
App
Temp
°C
Dew
Point
°C
Rel
Hum
%
Delta-T
°C
Wind Press
QNH
hPa
Press
MSL
hPa
Rain since
9am
mm
Dir  Spd
km/h
Gust
km/h
Spd
kts
Gust
kts
10/11:30pm 15.6 12.3 12.9 84 1.5 WNW 22 32 12 17 1008.6 1008.4 15.6
10/11:00pm 15.2 13.6 13.9 92 0.7 WNW 15 20 8 11 1009.0 1008.8 15.6
10/10:30pm 14.3 13.5 13.0 92 0.7 WNW 9 13 5 7 1008.5 1008.3 15.6
10/10:03pm 14.4 11.6 13.3 93 0.6 W 20 32 11 17 1009.2 1009.0 15.6
10/10:00pm 14.4 11.3 13.3 93 0.6 W 22 32 12 17 1009.1 1008.9 15.6
10/09:49pm 14.2 10.6 13.2 94 0.6 W 24 37 13 20 1009.1 1008.9 15.6
10/09:30pm 14.5 9.3 13.5 94 0.6 W 33 44 18 24 1009.0 1008.8 15.6
10/09:17pm 15.2 10.5 14.2 94 0.6 W 32 50 17 27 1008.8 1008.6 15.6
10/09:16pm 15.3 10.6 14.3 94 0.6 W 32 48 17 26 1008.8 1008.6 15.6
10/09:15pm 15.5 11.2 14.5 94 0.6 W 30 41 16 22 1008.8 1008.6 15.6
10/09:00pm 15.6 12.1 14.6 94 0.6 W 26 39 14 21 1008.5 1008.3 15.6
10/08:30pm 18.5 14.9 17.3 93 0.7 N 32 72 17 39 1008.2 1008.0 8.2
10/08:29pm 18.6 15.5 17.4 93 0.7 N 30 72 16 39 1007.7 1007.5 7.6
10/08:28pm 18.7 16.0 17.5 93 0.7 N 28 50 15 27 1007.6 1007.4 7.4
10/08:06pm 18.9 16.6 17.6 92 0.8 N 26 54 14 29 1007.9 1007.7 4.0
10/08:00pm 18.9 16.6 17.6 92 0.8 N 26 54 14 29 1007.9 1007.7 4.0
10/07:30pm 18.6 15.8 17.3 92 0.8 N 28 50 15 27 1008.0 1007.8 4.0
10/07:29pm 18.6 15.8 17.3 92 0.8 NNE 28 50 15 27 1008.1 1007.9 4.0
10/07:00pm 18.5 16.6 16.8 90 1.0 N 22 43 12 23 1008.8 1008.6 4.0
10/06:50pm 18.7 15.7 16.9 89 1.1 N 28 54 15 29 1008.7 1008.5 4.0
10/06:30pm 18.5 17.2 16.7 89 1.1 N 19 32 10 17 1008.7 1008.5 4.0
10/06:00pm 18.6 17.0 16.6 88 1.2 N 20 43 11 23 1009.1 1008.9 4.0
10/05:30pm 18.4 16.7 16.2 87 1.3 N 20 33 11 18 1008.9 1008.7 4.0
10/05:00pm 18.3 16.5 16.1 87 1.3 N 20 39 11 21 1009.0 1008.8 4.0
10/04:30pm 18.4 16.9 16.2 87 1.3 N 19 33 10 18 1009.4 1009.2 4.0
10/04:00pm 18.7 17.9 17.0 90 1.0 NNW 17 28 9 15 1009.5 1009.3 4.0
10/03:30pm 18.8 18.1 17.3 91 0.9 N 17 30 9 16 1008.8 1008.6 4.0
10/03:00pm 18.9 18.1 17.2 90 1.0 NNW 17 35 9 19 1009.0 1008.8 4.0
10/02:30pm 18.8 15.6 17.3 91 0.9 NNE 30 52 16 28 1007.4 1007.2 4.0
10/02:00pm 19.1 14.2 17.2 89 1.2 N 39 72 21 39 1007.7 1007.5 4.0
10/01:30pm 19.0 16.4 17.7 92 0.8 NNE 28 63 15 34 1008.7 1008.5 4.0
10/01:00pm 18.6 15.1 17.4 93 0.7 N 32 59 17 32 1009.3 1009.1 3.8
10/12:41pm 18.8 16.1 17.5 92 0.8 N 28 54 15 29 1010.0 1009.8 3.8
10/12:30pm 18.8 16.9 17.6 93 0.7 N 24 50 13 27 1010.2 1010.0 3.8
10/12:00pm 18.5 15.7 17.3 93 0.7 N 28 54 15 29 1010.6 1010.4 3.8
10/11:43am 18.3 15.4 17.1 93 0.7 NNE 28 59 15 32 1010.4 1010.2 3.8
10/11:30am 18.2 15.7 17.0 93 0.7 N 26 44 14 24 1010.8 1010.6 3.8
10/11:21am 18.2 15.3 17.0 93 0.7 N 28 54 15 29 1011.4 1011.3 3.8
10/11:00am 18.1 15.9 17.0 93 0.7 N 24 57 13 31 1011.7 1011.6 3.8
10/10:30am 18.0 16.6 17.0 94 0.6 N 20 41 11 22 1011.0 1010.9 3.8
10/10:00am 18.1 16.7 17.1 94 0.6 NNW 20 41 11 22 1012.8 1012.7 3.2
10/09:35am 18.0 15.2 17.2 95 0.5 NW 28 52 15 28 1013.4 1013.3 2.8
10/09:30am 17.9 15.4 17.1 95 0.5 NW 26 52 14 28 1013.7 1013.5 2.6
10/09:00am 18.1 15.6 17.1 94 0.6 NW 26 41 14 22 1013.9 1013.7 1.6
10/08:30am 18.5 16.9 17.5 94 0.6 NNW 22 48 12 26 1013.5 1013.4 0.4
10/08:00am 18.4 17.3 17.2 93 0.7 NNW 19 35 10 19 1013.2 1013.1 6.2
10/07:30am 18.7 17.1 17.4 92 0.8 NNW 22 50 12 27 1012.4 1012.3 5.6
10/07:20am 18.5 16.0 17.2 92 0.8 N 26 50 14 27 1013.1 1013.0 5.6
10/07:00am 18.4 15.5 17.1 92 0.8 N 28 56 15 30 1011.0 1010.9 5.4
10/06:30am 18.6 15.8 17.3 92 0.8 N 28 48 15 26 1011.8 1011.7 5.4
10/06:00am 18.7 15.5 17.2 91 0.9 N 30 59 16 32 1010.5 1010.3 5.4
10/05:54am 18.6 15.8 17.3 92 0.8 N 28 48 15 26 1010.8 1010.6 5.4
10/05:30am 18.5 17.4 17.3 93 0.7 N 19 35 10 19 1011.5 1011.4 5.4
10/05:00am 18.4 17.1 17.2 93 0.7 N 20 39 11 21 1012.3 1012.2 5.4
10/04:30am 18.2 15.3 17.0 93 0.7 NNE 28 48 15 26 1011.9 1011.8 5.4
10/04:29am 18.2 15.3 17.0 93 0.7 NNE 28 48 15 26 1011.9 1011.8 5.4
10/04:15am 18.3 15.8 17.1 93 0.7 NNE 26 41 14 22 1011.8 1011.7 5.4
10/04:00am 18.2 16.8 17.0 93 0.7 N 20 44 11 24 1011.7 1011.6 5.4
10/03:57am 18.2 16.8 17.0 93 0.7 NNE 20 44 11 24 1011.5 1011.4 5.4
10/03:30am 18.2 16.0 17.0 93 0.7 NNE 24 41 13 22 1011.4 1011.3 5.4
10/03:00am 18.1 15.6 17.1 94 0.6 N 26 52 14 28 1011.6 1011.5 5.4
10/02:49am 18.0 16.8 17.0 94 0.6 N 19 32 10 17 1011.9 1011.8 5.4
10/02:30am 18.0 15.5 17.0 94 0.6 NNE 26 41 14 22 1011.7 1011.6 5.2
10/02:28am 18.0 15.8 17.0 94 0.6 NNE 24 41 13 22 1011.7 1011.6 5.2
10/02:09am 17.8 15.6 16.8 94 0.6 N 24 39 13 21 1011.9 1011.8 5.2
10/02:00am 17.8 14.8 16.8 94 0.6 NNE 28 46 15 25 1012.2 1012.1 5.2
10/01:55am 17.8 14.8 16.8 94 0.6 NNE 28 46 15 25 1011.9 1011.8 5.2
10/01:32am 17.7 15.9 16.9 95 0.5 N 22 32 12 17 1012.0 1011.9 4.8
10/01:30am 17.6 15.7 16.8 95 0.5 N 22 32 12 17 1012.1 1012.0 4.8
10/01:08am 17.5 14.5 16.7 95 0.5 NNE 28 41 15 22 1012.4 1012.3 4.8
10/01:00am 17.3 14.9 16.5 95 0.5 NNE 24 35 13 19 1012.4 1012.3 4.8
10/12:30am 17.1 14.7 16.3 95 0.5 NNE 24 41 13 22 1013.4 1013.3 4.6
10/12:20am 17.1 13.9 16.3 95 0.5 NNE 28 48 15 26 1013.5 1013.4 4.6
10/12:09am 17.1 14.3 16.3 95 0.5 NNE 26 44 14 24 1013.9 1013.7 4.6
10/12:06am 17.2 14.0 16.4 95 0.5 NNE 28 44 15 24 1014.0 1013.8 4.6
10/12:00am 17.1 13.9 16.3 95 0.5 NNE 28 39 15 21 1013.9 1013.7 4.6
 
Date/Time
EST
Temp
°C
App
Temp
°C
Dew
Point
°C
Rel
Hum
%
Delta-T
°C
Wind Press
QNH
hPa
Press
MSL
hPa
Rain since
9am
mm
Dir  Spd
km/h
Gust
km/h
Spd
kts
Gust
kts
09/11:46pm 16.9 14.4 16.1 95 0.5 NNE 24 37 13 20 1013.4 1013.3 4.6
09/11:30pm 16.7 13.3 15.7 94 0.6 NNE 28 39 15 21 1013.9 1013.7 4.6
09/11:08pm 16.5 13.0 15.5 94 0.6 NNE 28 48 15 26 1014.1 1013.9 4.6
09/11:00pm 16.5 13.4 15.5 94 0.6 NNE 26 37 14 20 1014.1 1013.9 4.6
09/10:55pm 16.4 13.2 15.4 94 0.6 NNE 26 37 14 20 1014.1 1013.9 4.6
09/10:45pm 16.2 12.6 15.2 94 0.6 NNE 28 46 15 25 1014.3 1014.1 4.6
09/10:30pm 16.1 12.0 15.0 93 0.6 NNE 30 41 16 22 1014.4 1014.2 4.6
09/10:22pm 16.2 12.5 15.1 93 0.6 NNE 28 46 15 25 1014.5 1014.3 4.4
09/10:00pm 16.2 13.7 15.1 93 0.6 NNE 22 37 12 20 1014.8 1014.6 4.2
09/09:58pm 16.2 13.7 15.1 93 0.6 NNE 22 37 12 20 1014.8 1014.6 4.2
09/09:44pm 16.2 13.0 15.2 94 0.6 NNE 26 37 14 20 1014.9 1014.7 3.8
09/09:30pm 16.1 12.8 15.1 94 0.6 NNE 26 39 14 21 1015.0 1014.8 3.8
09/09:04pm 16.0 12.3 14.9 93 0.6 NE 28 46 15 25 1014.8 1014.6 3.6
09/09:00pm 16.0 12.7 14.9 93 0.6 NE 26 46 14 25 1015.0 1014.8 3.6
09/08:49pm 16.0 12.3 14.9 93 0.6 NE 28 41 15 22 1015.1 1014.9 3.6
09/08:40pm 16.0 12.3 14.9 93 0.6 NNE 28 39 15 21 1015.2 1015.0 3.6
09/08:30pm 15.9 11.4 14.8 93 0.6 NE 32 50 17 27 1015.2 1015.0 3.6
09/08:23pm 15.8 12.0 14.7 93 0.6 NE 28 46 15 25 1015.1 1014.9 3.6
09/08:00pm 15.6 12.0 14.3 92 0.7 NE 26 35 14 19 1015.4 1015.2 3.0
09/07:57pm 15.6 11.6 14.1 91 0.9 NE 28 39 15 21 1015.4 1015.2 2.6
09/07:30pm 16.0 11.4 13.5 85 1.4 NE 30 41 16 22 1015.5 1015.3 0.4
09/07:26pm 16.2 11.6 13.5 84 1.5 NE 30 41 16 22 1015.4 1015.2 0.4
09/07:00pm 16.2 11.5 13.1 82 1.7 NE 30 37 16 20 1015.2 1015.0 0.4
09/06:33pm 15.9 11.1 12.8 82 1.7 NE 30 48 16 26 1015.3 1015.1 0.4
09/06:30pm 15.9 10.7 12.8 82 1.7 NE 32 44 17 24 1015.3 1015.1 0.4

Other formats

Comma delimited format used in spreadsheet applications
http://www.bom.gov.au/fwo/IDN60801/IDN60801.94996.axf

JavaScript Object Notation format (JSON) in row-major order
http://www.bom.gov.au/fwo/IDN60801/IDN60801.94996.json

Data quality

Most of these data are generated automatically and are frequently updated. Quality checks on data are not normally performed. It is possible for incorrect values to appear. Refer to information at About Latest Weather Observations and please check the disclaimer before using these data.